Time;durP1;ratioP1;P1;durP2;ratioP2;P2;SDS_P1;SDS_P2;PMS_P1;PMS_P2;Temp;Humidity;BMP_temperature;BMP_pressure;BME280_temperature;BME280_humidity;BME280_pressure;Samples;Min_cycle;Max_cycle;Signal;HPM_P1;HPM_P2
2021/07/30 00:02:05;;;;;;;3.93;2.70;;;16.20;99.90;;;;;;5032649;28;20160;-70
2021/07/30 00:04:30;;;;;;;5.70;2.57;;;16.20;99.90;;;;;;5032399;28;20156;-70
2021/07/30 00:06:56;;;;;;;4.10;2.40;;;16.20;99.90;;;;;;5034171;28;20161;-70
2021/07/30 00:09:21;;;;;;;2.40;2.13;;;16.20;99.90;;;;;;5032660;28;20171;-70
2021/07/30 00:11:47;;;;;;;2.77;2.30;;;16.20;99.90;;;;;;5032297;28;20214;-70
2021/07/30 00:14:12;;;;;;;4.63;2.90;;;16.20;99.90;;;;;;5032672;28;20513;-71
2021/07/30 00:16:39;;;;;;;4.37;2.73;;;16.20;99.90;;;;;;5032153;28;20211;-71
2021/07/30 00:19:05;;;;;;;4.63;2.40;;;16.20;99.90;;;;;;5032427;28;20149;-70
2021/07/30 00:21:31;;;;;;;4.77;2.80;;;16.30;99.90;;;;;;5034097;28;20886;-70
2021/07/30 00:23:56;;;;;;;4.07;2.37;;;16.30;99.90;;;;;;5032577;28;20408;-71
2021/07/30 00:26:22;;;;;;;2.80;2.50;;;16.40;99.90;;;;;;5032339;28;20524;-70
2021/07/30 00:28:47;;;;;;;13.30;6.30;;;16.40;99.90;;;;;;5032156;28;20235;-71
2021/07/30 00:31:13;;;;;;;14.17;8.60;;;16.40;99.90;;;;;;5032396;28;20188;-71
2021/07/30 00:33:38;;;;;;;21.70;9.57;;;16.50;99.90;;;;;;5032108;28;20184;-70
2021/07/30 00:36:04;;;;;;;24.97;10.40;;;16.50;99.90;;;;;;5034139;28;20192;-70
2021/07/30 00:38:30;;;;;;;20.13;9.93;;;16.50;99.90;;;;;;5035803;28;20196;-70
2021/07/30 00:40:55;;;;;;;20.30;8.93;;;16.50;99.90;;;;;;5036299;28;20161;-71
2021/07/30 00:43:21;;;;;;;11.10;6.93;;;16.60;99.90;;;;;;5036238;28;20164;-71
2021/07/30 00:45:47;;;;;;;5.73;4.33;;;16.60;99.90;;;;;;5036009;28;20583;-71
2021/07/30 00:48:15;;;;;;;6.67;3.37;;;16.60;99.90;;;;;;5035774;28;20200;-70
2021/07/30 00:50:42;;;;;;;2.63;2.13;;;16.60;99.90;;;;;;5018040;28;20619;-71
2021/07/30 00:53:08;;;;;;;4.37;2.43;;;16.70;99.90;;;;;;5016264;28;20389;-70
2021/07/30 00:55:34;;;;;;;3.43;2.13;;;16.70;99.90;;;;;;5016138;28;20457;-70
2021/07/30 00:58:01;;;;;;;4.97;2.47;;;16.70;99.90;;;;;;5015936;28;20184;-70
2021/07/30 01:00:28;;;;;;;3.27;2.23;;;16.70;99.90;;;;;;5016142;28;20424;-71
2021/07/30 01:02:54;;;;;;;7.23;4.43;;;16.70;99.90;;;;;;5030561;28;20418;-70
2021/07/30 01:05:19;;;;;;;8.27;4.47;;;16.80;99.90;;;;;;5037521;28;20411;-71
2021/07/30 01:07:45;;;;;;;12.23;5.60;;;16.80;99.90;;;;;;5036096;28;20180;-70
2021/07/30 01:10:10;;;;;;;17.80;8.47;;;16.80;99.90;;;;;;5035674;28;20157;-70
2021/07/30 01:12:36;;;;;;;9.80;5.47;;;16.80;99.90;;;;;;5035567;28;20157;-71
2021/07/30 01:15:01;;;;;;;10.37;5.37;;;16.90;99.90;;;;;;5035612;28;20200;-71
2021/07/30 01:17:27;;;;;;;10.80;5.93;;;16.90;99.90;;;;;;5035525;28;20521;-70
2021/07/30 01:19:53;;;;;;;12.77;6.80;;;16.90;99.90;;;;;;5037195;28;20199;-70
2021/07/30 01:22:23;;;;;;;7.93;4.57;;;16.90;99.90;;;;;;5035297;28;20187;-70
2021/07/30 01:24:50;;;;;;;3.93;3.17;;;16.90;99.90;;;;;;5035469;28;20756;-71
2021/07/30 01:27:15;;;;;;;5.50;3.27;;;16.90;99.90;;;;;;5035402;28;20450;-71
2021/07/30 01:29:41;;;;;;;6.10;2.97;;;16.90;99.90;;;;;;5035279;28;20404;-71
2021/07/30 01:32:07;;;;;;;5.77;3.13;;;17.00;99.90;;;;;;5035234;28;20673;-71
2021/07/30 01:34:33;;;;;;;4.07;3.27;;;17.00;99.90;;;;;;5037134;28;20157;-71
2021/07/30 01:36:58;;;;;;;10.60;5.53;;;17.00;99.90;;;;;;5034961;28;20978;-71
2021/07/30 01:39:24;;;;;;;4.17;3.10;;;17.00;99.90;;;;;;5035039;28;20665;-71
2021/07/30 01:41:49;;;;;;;7.43;2.97;;;17.00;99.90;;;;;;5035084;28;20161;-71
2021/07/30 01:44:15;;;;;;;7.40;4.03;;;17.00;99.90;;;;;;5035331;28;20157;-71
2021/07/30 01:46:41;;;;;;;16.20;7.43;;;17.00;99.90;;;;;;5035432;28;20177;-70
2021/07/30 01:49:07;;;;;;;21.47;11.00;;;17.00;99.90;;;;;;5020251;28;20185;-71
2021/07/30 01:51:32;;;;;;;13.70;6.50;;;17.00;99.90;;;;;;5015254;28;20404;-71
2021/07/30 01:53:58;;;;;;;11.77;6.10;;;17.00;99.90;;;;;;5030065;28;20263;-71
2021/07/30 01:56:23;;;;;;;12.27;7.53;;;17.00;99.90;;;;;;5034610;28;20201;-71
2021/07/30 01:58:49;;;;;;;12.83;6.90;;;17.00;99.90;;;;;;5034882;28;20201;-71
2021/07/30 02:01:14;;;;;;;12.80;7.93;;;17.00;99.90;;;;;;5034701;28;20168;-70
2021/07/30 02:03:40;;;;;;;9.73;5.17;;;17.00;99.90;;;;;;5035814;28;20157;-70
2021/07/30 02:06:07;;;;;;;7.57;3.97;;;17.00;99.90;;;;;;5034741;28;20156;-71
2021/07/30 02:08:34;;;;;;;7.97;5.13;;;17.00;99.90;;;;;;5034504;28;20176;-71
2021/07/30 02:11:01;;;;;;;5.47;3.03;;;17.00;99.90;;;;;;5034360;28;20469;-71
2021/07/30 02:16:12;;;;;;;5.27;2.50;;;17.00;99.90;;;;;;5034282;28;20509;-71
2021/07/30 02:18:37;;;;;;;3.17;1.90;;;17.00;99.90;;;;;;5035180;28;20877;-71
2021/07/30 02:21:03;;;;;;;3.00;2.47;;;17.00;99.90;;;;;;5034382;28;20196;-71
2021/07/30 02:23:28;;;;;;;6.50;2.83;;;17.00;99.90;;;;;;5034621;28;20184;-71
2021/07/30 02:25:54;;;;;;;2.50;2.30;;;17.00;99.90;;;;;;5034314;28;20646;-71
2021/07/30 02:28:19;;;;;;;2.90;2.50;;;17.00;99.90;;;;;;5034094;28;20208;-71
2021/07/30 02:30:45;;;;;;;5.37;2.40;;;17.00;99.90;;;;;;5034760;28;20181;-71
2021/07/30 02:33:10;;;;;;;2.33;2.13;;;17.00;99.90;;;;;;5035060;28;20165;-71
2021/07/30 02:35:36;;;;;;;4.20;2.83;;;17.00;99.90;;;;;;5034261;28;20193;-71
2021/07/30 02:38:01;;;;;;;4.63;2.00;;;17.00;99.90;;;;;;5034045;28;20149;-71
2021/07/30 02:40:27;;;;;;;4.60;3.77;;;17.00;99.90;;;;;;5034021;28;20157;-71
2021/07/30 02:42:52;;;;;;;8.10;3.30;;;17.00;99.90;;;;;;5034140;28;20191;-71
2021/07/30 02:45:18;;;;;;;4.50;3.13;;;17.00;99.90;;;;;;5034688;28;20184;-71
2021/07/30 02:47:43;;;;;;;5.50;2.87;;;17.00;99.90;;;;;;5036268;28;20181;-71
2021/07/30 02:50:09;;;;;;;4.30;2.60;;;17.00;99.90;;;;;;5034026;28;20153;-71
2021/07/30 02:52:35;;;;;;;4.73;2.80;;;17.00;99.90;;;;;;5033783;28;20218;-71
2021/07/30 02:55:00;;;;;;;5.73;3.20;;;16.90;99.90;;;;;;5034037;28;20199;-70
2021/07/30 02:57:26;;;;;;;5.40;2.70;;;16.90;99.90;;;;;;5034169;28;20154;-71
2021/07/30 02:59:51;;;;;;;3.57;3.00;;;16.80;99.90;;;;;;5032691;28;20196;-70
2021/07/30 03:02:17;;;;;;;3.40;2.77;;;16.80;99.90;;;;;;5035249;28;20177;-71
2021/07/30 03:04:42;;;;;;;4.23;3.47;;;16.70;99.90;;;;;;5033390;28;20692;-71
2021/07/30 03:07:08;;;;;;;5.77;3.17;;;16.60;99.90;;;;;;5033482;28;20165;-71
2021/07/30 03:09:34;;;;;;;5.63;2.50;;;16.60;99.90;;;;;;5033526;28;20193;-71
2021/07/30 03:11:59;;;;;;;3.80;1.93;;;16.50;99.90;;;;;;5033436;28;20161;-70
2021/07/30 03:14:25;;;;;;;2.43;1.90;;;16.40;99.90;;;;;;5033323;28;20618;-70
2021/07/30 03:16:50;;;;;;;3.67;2.40;;;16.40;99.90;;;;;;5034586;28;20204;-71
2021/07/30 03:19:16;;;;;;;3.80;2.80;;;16.30;99.90;;;;;;5033132;28;20176;-71
2021/07/30 03:21:41;;;;;;;7.07;2.87;;;16.30;99.90;;;;;;5033032;28;20203;-71
2021/07/30 03:24:07;;;;;;;6.00;2.77;;;16.20;99.90;;;;;;5033091;28;20620;-71
2021/07/30 03:26:33;;;;;;;5.07;2.80;;;16.20;99.90;;;;;;5033082;28;20185;-71
2021/07/30 03:28:59;;;;;;;4.87;3.03;;;16.10;99.90;;;;;;5033124;28;20579;-70
2021/07/30 03:31:24;;;;;;;4.37;2.60;;;16.10;99.90;;;;;;5034411;28;20391;-71
2021/07/30 03:33:50;;;;;;;5.20;2.80;;;16.10;99.90;;;;;;5032979;28;20218;-71
2021/07/30 03:36:15;;;;;;;3.70;3.27;;;16.10;99.90;;;;;;5032762;28;20254;-71
2021/07/30 03:38:41;;;;;;;3.70;2.73;;;16.10;99.90;;;;;;5032795;28;20188;-71
2021/07/30 03:41:06;;;;;;;3.10;2.50;;;16.00;99.90;;;;;;5032997;28;20547;-70
2021/07/30 03:43:32;;;;;;;5.50;2.77;;;16.00;99.90;;;;;;5033528;28;20157;-70
2021/07/30 03:45:58;;;;;;;4.53;2.23;;;16.00;99.90;;;;;;5033877;28;20173;-71
2021/07/30 03:48:24;;;;;;;4.03;2.33;;;15.90;99.90;;;;;;5014573;28;20224;-71
2021/07/30 03:50:49;;;;;;;2.70;2.20;;;15.90;99.90;;;;;;5013007;28;20483;-71
2021/07/30 03:53:15;;;;;;;4.53;2.60;;;15.80;99.90;;;;;;5030361;28;20645;-71
2021/07/30 03:55:41;;;;;;;4.07;2.67;;;15.80;99.90;;;;;;5032545;28;20214;-70
2021/07/30 03:58:06;;;;;;;4.83;2.63;;;15.80;99.90;;;;;;5032744;28;20145;-70
2021/07/30 04:00:32;;;;;;;3.83;3.10;;;15.80;99.90;;;;;;5034037;28;20687;-71
2021/07/30 04:02:57;;;;;;;5.20;2.53;;;15.70;99.90;;;;;;5032730;28;20159;-70
2021/07/30 04:05:23;;;;;;;5.17;2.80;;;15.70;99.90;;;;;;5032574;28;20165;-71
2021/07/30 04:07:48;;;;;;;6.30;3.23;;;15.70;99.90;;;;;;5032594;28;20165;-71
2021/07/30 04:10:14;;;;;;;3.00;2.20;;;15.70;99.90;;;;;;5032350;28;20173;-70
2021/07/30 04:12:39;;;;;;;3.60;2.27;;;15.70;99.90;;;;;;5032450;28;20198;-70
2021/07/30 04:15:05;;;;;;;2.37;1.90;;;15.70;99.90;;;;;;5034278;28;20199;-71
2021/07/30 04:17:31;;;;;;;9.27;3.33;;;15.60;99.90;;;;;;5032572;28;20176;-70
2021/07/30 04:19:57;;;;;;;3.10;2.20;;;15.60;99.90;;;;;;5032308;28;20403;-71
2021/07/30 04:22:22;;;;;;;3.17;2.53;;;15.60;99.90;;;;;;5032489;28;20155;-70
2021/07/30 04:24:48;;;;;;;2.70;2.13;;;15.60;99.90;;;;;;5032468;28;20165;-70
2021/07/30 04:27:13;;;;;;;4.70;2.90;;;15.60;99.90;;;;;;5032696;28;20668;-70
2021/07/30 04:29:41;;;;;;;5.30;2.87;;;15.60;99.90;;;;;;5033550;28;20184;-71
2021/07/30 04:32:09;;;;;;;2.57;2.37;;;15.60;99.90;;;;;;5032246;28;20549;-71
2021/07/30 04:34:36;;;;;;;3.87;2.50;;;15.70;99.90;;;;;;5032325;28;20407;-71
2021/07/30 04:37:02;;;;;;;4.20;3.13;;;15.60;99.90;;;;;;5032228;28;20526;-70
2021/07/30 04:39:27;;;;;;;3.13;2.70;;;15.60;99.90;;;;;;5032300;28;20427;-71
2021/07/30 04:41:53;;;;;;;3.37;2.37;;;15.70;99.90;;;;;;5032286;28;20167;-70
2021/07/30 04:44:19;;;;;;;4.93;2.63;;;15.60;99.90;;;;;;5032944;28;20183;-71
2021/07/30 04:46:44;;;;;;;2.77;2.50;;;15.60;99.90;;;;;;5027298;28;20267;-71
2021/07/30 04:49:10;;;;;;;2.87;2.57;;;15.70;99.90;;;;;;5012465;28;20627;-71
2021/07/30 04:51:35;;;;;;;4.13;3.30;;;15.70;99.90;;;;;;5012782;28;20252;-70
2021/07/30 04:54:01;;;;;;;4.37;3.00;;;15.80;99.90;;;;;;5012624;28;20173;-70
2021/07/30 04:56:26;;;;;;;3.43;3.07;;;15.80;99.90;;;;;;5024861;28;20216;-71
2021/07/30 04:58:52;;;;;;;3.30;2.97;;;15.80;99.90;;;;;;5033186;28;20194;-71
2021/07/30 05:01:18;;;;;;;2.70;2.50;;;15.80;99.90;;;;;;5032247;28;20230;-70
2021/07/30 05:03:43;;;;;;;3.40;2.70;;;15.80;99.90;;;;;;5032366;28;20254;-71
2021/07/30 05:06:18;;;;;;;3.97;2.43;;;15.80;99.90;;;;;;5032188;28;20153;-70
2021/07/30 05:08:44;;;;;;;3.20;2.20;;;15.80;99.90;;;;;;5032113;28;20164;-70
2021/07/30 05:11:11;;;;;;;2.50;2.30;;;15.90;99.90;;;;;;5033306;28;20402;-71
2021/07/30 05:13:39;;;;;;;3.97;2.80;;;15.90;99.90;;;;;;5033001;28;20399;-70
2021/07/30 05:16:06;;;;;;;3.90;2.67;;;15.90;99.90;;;;;;5031988;28;20677;-70
2021/07/30 05:18:32;;;;;;;7.00;2.70;;;15.90;99.90;;;;;;5031801;28;20415;-70
2021/07/30 05:20:57;;;;;;;3.33;2.90;;;15.90;99.90;;;;;;5031891;28;20419;-71
2021/07/30 05:23:23;;;;;;;4.30;3.27;;;16.00;99.90;;;;;;5033442;28;20164;-70
2021/07/30 05:25:53;;;;;;;3.47;3.03;;;16.10;99.90;;;;;;5036995;28;20198;-71
2021/07/30 05:28:18;;;;;;;3.67;2.60;;;16.10;99.90;;;;;;5036414;28;20157;-70
2021/07/30 05:30:44;;;;;;;3.27;2.70;;;16.20;99.90;;;;;;5035471;28;20880;-71
2021/07/30 05:33:09;;;;;;;2.90;2.27;;;16.20;99.90;;;;;;5035385;28;20148;-71
2021/07/30 05:35:34;;;;;;;3.17;2.97;;;16.30;99.90;;;;;;5035265;28;20200;-70
2021/07/30 05:38:00;;;;;;;3.70;2.83;;;16.30;99.90;;;;;;5035289;28;20291;-70
2021/07/30 05:40:25;;;;;;;2.33;2.13;;;16.40;99.90;;;;;;5036681;28;20171;-71
2021/07/30 05:42:51;;;;;;;4.33;3.90;;;16.40;99.90;;;;;;5035986;28;20172;-71
2021/07/30 05:45:16;;;;;;;2.50;2.30;;;16.40;99.90;;;;;;5034592;28;20510;-71
2021/07/30 05:47:42;;;;;;;3.77;2.67;;;16.40;99.90;;;;;;5015286;28;20182;-70
2021/07/30 05:50:08;;;;;;;2.63;2.40;;;16.50;99.90;;;;;;5015601;28;20630;-71
2021/07/30 05:52:34;;;;;;;5.30;2.50;;;16.50;99.90;;;;;;5034952;28;20215;-70
2021/07/30 05:55:00;;;;;;;2.67;2.10;;;16.50;99.90;;;;;;5036715;28;20916;-71
2021/07/30 05:57:25;;;;;;;4.90;2.53;;;16.50;99.90;;;;;;5035636;28;20404;-71
2021/07/30 05:59:51;;;;;;;5.03;2.40;;;16.60;99.90;;;;;;5035127;28;20199;-70
2021/07/30 06:02:16;;;;;;;3.57;2.30;;;16.70;99.90;;;;;;5034927;28;20189;-70
2021/07/30 06:04:42;;;;;;;3.23;2.23;;;16.70;99.90;;;;;;5034972;28;20615;-70
2021/07/30 06:07:07;;;;;;;4.67;2.20;;;16.80;99.90;;;;;;5034713;28;20232;-70
2021/07/30 06:09:33;;;;;;;3.30;1.80;;;16.80;99.90;;;;;;5036617;28;20180;-71
2021/07/30 06:11:58;;;;;;;2.90;1.90;;;16.90;99.90;;;;;;5035333;28;20650;-70
2021/07/30 06:14:24;;;;;;;2.20;2.00;;;17.00;99.90;;;;;;5034704;28;20361;-71
2021/07/30 06:16:49;;;;;;;2.57;2.20;;;17.00;99.90;;;;;;5034421;28;20204;-71
2021/07/30 06:19:15;;;;;;;2.60;2.23;;;17.10;99.90;;;;;;5034661;28;20294;-70
2021/07/30 06:21:41;;;;;;;2.30;2.07;;;17.20;99.90;;;;;;5034649;28;20164;-70
2021/07/30 06:24:06;;;;;;;4.00;2.23;;;17.30;99.90;;;;;;5036723;28;20735;-71
2021/07/30 06:26:32;;;;;;;2.87;2.30;;;17.40;99.90;;;;;;5034576;28;20184;-71
2021/07/30 06:28:57;;;;;;;3.60;2.40;;;17.50;99.90;;;;;;5034484;28;20196;-71
2021/07/30 06:31:23;;;;;;;3.30;2.20;;;17.60;99.90;;;;;;5034374;28;20161;-71
2021/07/30 06:33:48;;;;;;;2.57;1.97;;;17.70;99.90;;;;;;5034050;28;20744;-71
2021/07/30 06:36:16;;;;;;;2.83;2.30;;;17.80;99.90;;;;;;5034126;28;20379;-71
2021/07/30 06:38:41;;;;;;;2.13;1.77;;;17.90;99.90;;;;;;5036436;28;20688;-71
2021/07/30 06:41:07;;;;;;;2.43;2.17;;;18.00;99.90;;;;;;5034518;28;20392;-71
2021/07/30 06:43:32;;;;;;;2.30;1.93;;;18.10;99.90;;;;;;5033990;28;20169;-71
2021/07/30 06:46:00;;;;;;;3.67;2.07;;;18.20;99.90;;;;;;5033685;28;20176;-71
2021/07/30 06:48:25;;;;;;;2.30;2.10;;;18.30;99.90;;;;;;5015857;28;20261;-71
2021/07/30 06:50:53;;;;;;;2.43;2.10;;;18.40;99.90;;;;;;5014185;28;20479;-71
2021/07/30 06:53:19;;;;;;;2.43;1.90;;;18.50;99.90;;;;;;5016837;28;20221;-71
2021/07/30 06:55:44;;;;;;;2.97;1.73;;;18.60;99.90;;;;;;5013682;28;20483;-71
2021/07/30 06:58:10;;;;;;;2.47;1.87;;;18.80;99.90;;;;;;5013411;28;20160;-71
2021/07/30 07:00:35;;;;;;;2.60;2.23;;;18.90;99.90;;;;;;5014149;28;20153;-71
2021/07/30 07:03:03;;;;;;;3.37;2.50;;;19.00;99.90;;;;;;5029006;28;20243;-71
2021/07/30 07:05:28;;;;;;;5.20;2.20;;;19.00;99.90;;;;;;5033839;28;20168;-71
2021/07/30 07:07:54;;;;;;;2.60;1.73;;;19.10;99.90;;;;;;5036881;28;20747;-71
2021/07/30 07:10:20;;;;;;;2.80;1.40;;;19.20;99.90;;;;;;5033832;28;20165;-71
2021/07/30 07:12:45;;;;;;;2.40;2.13;;;19.30;99.90;;;;;;5033564;28;20180;-71
2021/07/30 07:15:11;;;;;;;1.80;1.50;;;19.50;99.90;;;;;;5033332;28;20249;-71
2021/07/30 07:17:37;;;;;;;2.57;1.40;;;19.50;99.90;;;;;;5033564;28;20184;-71
2021/07/30 07:20:03;;;;;;;2.27;1.67;;;19.60;99.90;;;;;;5033342;28;20419;-71
2021/07/30 07:22:29;;;;;;;2.00;1.80;;;19.60;99.90;;;;;;5035828;28;20158;-71
2021/07/30 07:24:56;;;;;;;2.50;1.90;;;19.70;99.90;;;;;;5033428;28;20395;-71
2021/07/30 07:27:22;;;;;;;3.93;1.77;;;19.80;99.90;;;;;;5033322;28;20469;-71
2021/07/30 07:29:47;;;;;;;2.23;2.07;;;20.00;99.90;;;;;;5033275;28;20899;-71
2021/07/30 07:32:13;;;;;;;2.10;1.50;;;20.10;99.90;;;;;;5033017;28;20172;-71
2021/07/30 07:34:39;;;;;;;3.10;2.00;;;20.20;99.90;;;;;;5033448;28;20544;-72
2021/07/30 07:37:04;;;;;;;2.10;1.70;;;20.30;99.90;;;;;;5035890;28;20206;-71
2021/07/30 07:39:30;;;;;;;4.27;2.33;;;20.50;99.90;;;;;;5033116;28;20568;-71
2021/07/30 07:41:57;;;;;;;2.10;1.83;;;20.90;99.90;;;;;;5033260;28;20641;-71
2021/07/30 07:44:23;;;;;;;2.73;1.70;;;21.60;99.90;;;;;;5031473;28;20418;-71
2021/07/30 07:46:48;;;;;;;2.57;1.40;;;22.50;99.90;;;;;;5012769;28;20805;-71
2021/07/30 07:49:14;;;;;;;1.83;1.73;;;23.50;98.40;;;;;;5014707;28;20190;-71
2021/07/30 07:51:40;;;;;;;3.73;1.30;;;24.60;95.80;;;;;;5015463;28;20158;-71
2021/07/30 07:54:06;;;;;;;6.30;1.50;;;25.60;93.30;;;;;;5029132;28;20184;-72
2021/07/30 07:56:31;;;;;;;3.00;1.80;;;26.70;89.10;;;;;;5032956;28;20284;-72
2021/07/30 07:58:57;;;;;;;1.57;1.43;;;27.60;85.90;;;;;;5032686;28;20185;-72
2021/07/30 08:01:23;;;;;;;3.50;1.60;;;28.50;79.40;;;;;;5032780;28;20248;-72
2021/07/30 08:03:48;;;;;;;2.60;1.20;;;29.10;72.80;;;;;;5033609;28;20149;-72
2021/07/30 08:06:17;;;;;;;1.63;1.17;;;29.30;68.10;;;;;;5035372;28;20161;-72
2021/07/30 08:08:43;;;;;;;1.50;1.20;;;30.00;67.40;;;;;;5013019;28;20173;-70
2021/07/30 08:11:08;;;;;;;1.20;1.10;;;30.40;62.60;;;;;;5028973;28;20775;-70
2021/07/30 08:13:34;;;;;;;1.40;1.30;;;30.80;58.40;;;;;;5032911;28;20203;-70
2021/07/30 08:15:59;;;;;;;1.80;1.30;;;30.90;58.50;;;;;;5032367;28;20205;-70
2021/07/30 08:18:25;;;;;;;2.40;1.37;;;31.10;56.90;;;;;;5033391;28;20213;-71
2021/07/30 08:20:50;;;;;;;1.50;1.40;;;31.20;55.90;;;;;;5034371;28;20271;-71
2021/07/30 08:23:16;;;;;;;2.13;1.20;;;30.70;55.20;;;;;;5032663;28;20255;-71
2021/07/30 08:25:41;;;;;;;1.67;1.57;;;31.10;55.90;;;;;;5032539;28;20622;-71
2021/07/30 08:28:07;;;;;;;8.87;3.23;;;31.50;53.90;;;;;;5032569;28;20185;-71
2021/07/30 08:30:32;;;;;;;82.47;23.83;;;32.00;54.20;;;;;;5032389;28;20157;-71
2021/07/30 08:32:58;;;;;;;18.70;7.40;;;32.80;54.50;;;;;;5034579;28;20207;-71
2021/07/30 08:35:24;;;;;;;19.77;6.30;;;33.70;51.50;;;;;;5034249;28;20197;-71
2021/07/30 08:37:49;;;;;;;73.30;20.03;;;34.80;49.30;;;;;;5032588;28;20174;-71
2021/07/30 08:40:15;;;;;;;25.97;8.83;;;35.70;45.90;;;;;;5032166;28;20252;-71
2021/07/30 08:42:40;;;;;;;15.40;5.03;;;36.20;44.60;;;;;;5032429;28;20168;-72
2021/07/30 08:45:07;;;;;;;4.30;1.80;;;36.10;42.20;;;;;;5031746;28;20177;-72
2021/07/30 08:47:33;;;;;;;3.20;1.73;;;36.50;42.90;;;;;;5022363;28;20176;-71
2021/07/30 08:49:59;;;;;;;2.47;1.30;;;37.30;41.30;;;;;;5013791;28;20901;-71
2021/07/30 08:52:36;;;;;;;2.60;1.57;;;38.20;39.80;;;;;;5012749;28;20169;-71
2021/07/30 08:55:02;;;;;;;2.73;2.27;;;39.10;38.10;;;;;;5012444;28;20729;-71
2021/07/30 08:57:28;;;;;;;2.57;1.30;;;40.10;36.60;;;;;;5015011;28;20518;-71
2021/07/30 08:59:53;;;;;;;1.00;0.90;;;40.80;34.60;;;;;;5036002;28;20506;-71
2021/07/30 09:02:19;;;;;;;5.03;2.00;;;41.50;31.90;;;;;;5036558;28;20208;-72
2021/07/30 09:04:44;;;;;;;2.15;1.50;;;41.70;32.90;;;;;;5036436;28;20196;-72
2021/07/30 09:07:10;;;;;;;1.92;1.35;;;41.70;32.00;;;;;;5035927;28;20191;-72
2021/07/30 09:09:36;;;;;;;1.65;1.40;;;41.60;31.70;;;;;;5035937;28;20172;-72
2021/07/30 09:12:04;;;;;;;1.30;1.00;;;41.20;31.20;;;;;;5035823;28;20156;-72
2021/07/30 09:14:43;;;;;;;1.67;1.20;;;41.20;32.30;;;;;;5035727;28;20275;-72
2021/07/30 09:17:09;;;;;;;1.40;1.30;;;40.80;32.60;;;;;;5036770;28;20263;-72
2021/07/30 09:19:35;;;;;;;2.47;1.50;;;40.60;32.90;;;;;;5035852;28;20613;-72
2021/07/30 09:22:10;;;;;;;1.40;1.30;;;40.60;32.40;;;;;;5035639;28;20157;-72
2021/07/30 09:24:38;;;;;;;1.77;1.27;;;40.40;32.20;;;;;;5035630;28;20214;-72
2021/07/30 09:27:05;;;;;;;2.43;1.50;;;39.90;32.50;;;;;;5035637;28;20530;-72
2021/07/30 09:29:32;;;;;;;2.63;1.53;;;39.40;33.40;;;;;;5036031;28;20157;-72
2021/07/30 09:34:40;;;;;;;2.80;1.53;;;37.80;36.20;;;;;;5066313;28;21096;-72
2021/07/30 09:37:08;;;;;;;1.57;1.40;;;37.30;36.50;;;;;;5049803;28;20168;-72
2021/07/30 09:42:12;;;;;;;1.23;1.13;;;36.80;37.70;;;;;;5069950;28;20542;-72
2021/07/30 09:44:55;;;;;;;1.67;1.40;;;36.10;39.10;;;;;;5058245;28;20426;-71
2021/07/30 09:47:24;;;;;;;1.80;1.33;;;35.70;39.70;;;;;;5050592;28;20942;-72
2021/07/30 09:50:00;;;;;;;1.93;1.70;;;35.40;39.10;;;;;;5050397;28;20449;-72
2021/07/30 09:55:05;;;;;;;1.37;1.27;;;34.90;40.00;;;;;;5069884;28;21117;-71
2021/07/30 09:57:33;;;;;;;2.03;1.70;;;33.00;43.20;;;;;;5070562;28;20412;-72
2021/07/30 10:02:37;;;;;;;1.23;1.13;;;32.90;46.30;;;;;;5071280;28;20513;-72
2021/07/30 10:05:05;;;;;;;1.93;1.23;;;32.50;44.50;;;;;;5069980;28;20394;-72
2021/07/30 10:07:33;;;;;;;3.00;1.40;;;32.30;45.00;;;;;;5069392;28;20730;-71
2021/07/30 10:12:51;;;;;;;1.60;1.50;;;31.90;46.10;;;;;;5071192;28;20512;-73
2021/07/30 10:15:17;;;;;;;2.80;1.37;;;31.70;46.20;;;;;;5072498;28;20879;-73
2021/07/30 10:20:28;;;;;;;1.63;1.20;;;31.20;45.20;;;;;;5069676;28;20508;-74
2021/07/30 10:25:34;;;;;;;2.57;1.37;;;31.10;46.70;;;;;;5067808;28;20525;-73
2021/07/30 10:28:06;;;;;;;4.67;2.17;;;30.70;47.70;;;;;;5050031;28;20403;-73
2021/07/30 10:36:31;;;;;;;2.10;1.90;;;30.20;50.00;;;;;;5172397;27;20505;-72
2021/07/30 10:39:16;;;;;;;2.50;2.00;;;29.70;49.90;;;;;;5172471;27;20397;-72
2021/07/30 10:42:10;;;;;;;1.77;1.53;;;29.40;52.00;;;;;;5152498;27;20871;-72
2021/07/30 10:44:56;;;;;;;3.43;2.03;;;29.00;49.60;;;;;;5148457;27;20410;-72
2021/07/30 10:47:22;;;;;;;3.27;1.60;;;28.70;50.70;;;;;;5136100;27;20437;-72
2021/07/30 10:49:48;;;;;;;2.07;1.90;;;28.50;51.30;;;;;;5151746;27;20408;-72
2021/07/30 10:52:29;;;;;;;2.00;1.67;;;28.40;51.50;;;;;;5151445;27;20391;-72
2021/07/30 10:54:55;;;;;;;1.77;1.67;;;28.30;50.90;;;;;;5153124;27;20203;-72
2021/07/30 10:57:48;;;;;;;3.43;2.03;;;28.10;51.80;;;;;;5164367;27;20409;-72
2021/07/30 11:00:14;;;;;;;3.70;1.90;;;28.10;52.20;;;;;;5157214;27;20664;-72
2021/07/30 11:03:04;;;;;;;2.13;1.90;;;28.00;52.20;;;;;;5172455;27;20418;-72
2021/07/30 11:05:30;;;;;;;2.60;1.50;;;28.00;54.00;;;;;;5157201;27;20207;-72
2021/07/30 11:08:00;;;;;;;2.43;1.57;;;27.90;51.60;;;;;;5172185;27;20438;-72
2021/07/30 11:10:26;;;;;;;2.27;1.70;;;28.00;53.50;;;;;;5172685;27;20613;-73
2021/07/30 11:12:54;;;;;;;2.07;1.87;;;27.80;51.20;;;;;;5176044;27;20404;-72
2021/07/30 11:15:19;;;;;;;1.93;1.43;;;27.70;52.70;;;;;;5170996;27;20207;-72
2021/07/30 11:17:48;;;;;;;3.63;2.47;;;27.60;53.10;;;;;;5159066;27;20410;-72
2021/07/30 11:20:14;;;;;;;1.60;1.50;;;27.40;53.50;;;;;;5151163;27;20710;-72
2021/07/30 11:22:39;;;;;;;2.17;1.97;;;27.30;53.30;;;;;;5151091;27;20507;-72
2021/07/30 11:25:10;;;;;;;2.40;2.20;;;27.20;55.40;;;;;;5152012;27;20240;-72
2021/07/30 11:27:36;;;;;;;2.27;1.80;;;27.10;53.20;;;;;;5154573;27;20521;-73
2021/07/30 11:30:03;;;;;;;5.70;2.40;;;26.90;53.60;;;;;;5150616;27;20460;-72
2021/07/30 11:32:30;;;;;;;2.30;2.13;;;26.70;54.40;;;;;;5151417;27;20424;-72
2021/07/30 11:34:56;;;;;;;1.93;1.73;;;26.60;57.10;;;;;;5151008;27;20465;-72
2021/07/30 11:37:26;;;;;;;2.70;2.03;;;26.60;55.30;;;;;;5150630;27;20519;-72
2021/07/30 11:39:54;;;;;;;2.03;1.93;;;26.50;56.60;;;;;;5151738;27;20180;-72
2021/07/30 11:42:28;;;;;;;3.43;2.90;;;26.50;55.80;;;;;;5152136;27;20434;-72
2021/07/30 11:44:56;;;;;;;2.77;1.77;;;26.60;56.50;;;;;;5129505;27;20506;-72
2021/07/30 11:47:22;;;;;;;1.97;1.80;;;26.40;56.20;;;;;;5118625;27;20418;-72
2021/07/30 11:50:01;;;;;;;3.67;2.23;;;26.40;55.90;;;;;;5136677;27;20398;-72
2021/07/30 11:52:28;;;;;;;1.83;1.73;;;26.30;55.80;;;;;;5137074;27;20979;-72
2021/07/30 11:54:54;;;;;;;2.30;2.03;;;26.40;56.70;;;;;;5138746;27;20454;-72
2021/07/30 11:57:27;;;;;;;3.90;2.93;;;26.30;56.00;;;;;;5137374;27;20407;-72
2021/07/30 11:59:53;;;;;;;3.00;2.07;;;26.00;56.20;;;;;;5136113;27;20205;-72
2021/07/30 12:02:19;;;;;;;1.90;1.80;;;25.90;56.60;;;;;;5136281;27;20852;-72
2021/07/30 12:04:57;;;;;;;2.13;1.30;;;26.00;56.80;;;;;;5136810;27;20676;-72
2021/07/30 12:07:35;;;;;;;2.90;1.93;;;26.10;59.40;;;;;;5136871;27;20189;-72
2021/07/30 12:10:03;;;;;;;1.70;1.60;;;26.20;59.10;;;;;;5139623;27;20449;-72
2021/07/30 12:12:33;;;;;;;2.27;1.90;;;26.20;56.40;;;;;;5136329;27;20429;-72
2021/07/30 12:14:59;;;;;;;2.17;1.80;;;26.10;56.40;;;;;;5135328;27;20443;-72
2021/07/30 12:17:29;;;;;;;2.63;2.40;;;26.20;56.90;;;;;;5135165;27;20409;-72
2021/07/30 12:19:58;;;;;;;2.40;2.20;;;26.20;57.30;;;;;;5136253;27;20470;-72
2021/07/30 12:22:46;;;;;;;3.30;3.00;;;26.40;59.90;;;;;;5136461;27;20431;-72
2021/07/30 12:25:16;;;;;;;1.80;1.70;;;26.40;57.90;;;;;;5123075;27;20426;-72
2021/07/30 12:27:42;;;;;;;3.70;2.20;;;26.10;56.10;;;;;;5135788;27;20391;-72
2021/07/30 12:30:23;;;;;;;2.57;2.37;;;26.10;58.10;;;;;;5135981;27;20399;-73
2021/07/30 12:32:49;;;;;;;2.37;2.17;;;26.10;56.80;;;;;;5135728;27;20437;-73
2021/07/30 12:35:17;;;;;;;2.20;2.03;;;26.00;57.20;;;;;;5135331;27;20886;-72
2021/07/30 12:38:06;;;;;;;2.80;2.50;;;26.00;59.30;;;;;;5137462;27;20245;-73
2021/07/30 12:40:33;;;;;;;2.60;2.20;;;26.00;57.10;;;;;;5121705;27;20411;-73
2021/07/30 12:43:18;;;;;;;4.23;1.90;;;25.90;58.10;;;;;;5129141;27;20469;-73
2021/07/30 12:45:48;;;;;;;1.90;1.70;;;25.70;57.80;;;;;;5098347;28;20415;-73
2021/07/30 12:48:19;;;;;;;2.03;1.70;;;25.70;56.80;;;;;;5114838;28;20395;-72
2021/07/30 12:50:46;;;;;;;2.33;2.00;;;25.60;56.90;;;;;;5114802;28;20400;-72
2021/07/30 12:53:20;;;;;;;2.00;1.57;;;25.50;57.40;;;;;;5116565;28;20396;-72
2021/07/30 12:56:06;;;;;;;1.60;1.50;;;25.40;58.20;;;;;;5124495;27;20488;-73
2021/07/30 12:58:37;;;;;;;2.53;2.10;;;25.50;59.70;;;;;;5138583;27;20801;-72
2021/07/30 13:01:13;;;;;;;2.37;1.97;;;25.50;59.20;;;;;;5156172;27;20418;-73
2021/07/30 13:03:41;;;;;;;3.77;2.27;;;25.40;57.70;;;;;;5155852;27;20409;-72
2021/07/30 13:08:48;;;;;;;2.27;2.07;;;25.20;57.80;;;;;;5071503;28;20509;-72
2021/07/30 13:11:17;;;;;;;5.70;2.33;;;25.10;58.20;;;;;;5069203;28;20968;-72
2021/07/30 13:13:43;;;;;;;2.53;1.37;;;25.10;58.10;;;;;;5057409;28;20405;-72
2021/07/30 13:16:10;;;;;;;2.77;2.10;;;25.10;58.70;;;;;;5049090;28;20768;-72